Terminal Aerodrome Forecast
Issued by NWS Grand Forks, ND

Home | Current Version | Previous Version | Text Only | Print | Product List | Glossary On
Versions: 1 2 3 4 5 6 7 8 9 10 11 12 13 14
294
FTUS43 KFGF 271726 AAA
TAFGFK
TAF AMD
KGFK 271726Z 2717/2818 VRB06KT P6SM BKN200
     FM272300 03007KT P6SM OVC080
     FM280700 36011KT P6SM BKN035=

USA.gov is the U.S. government's official web portal to all federal, state and local government web resources and services.